Terminal Aerodrome Forecast
Issued by NWS Cleveland, OH

Home | Current Version | Previous Version | Graphics & Text | Print | Product List | Glossary Off
Versions: 1 2 3 4 5 6 7 8 9 10 11 12 13 14 15 16 17 18 19 20 21

000
FTUS41 KCLE 242300
TAFMFD
TAF
KMFD 242330Z 2500/2524 23005KT P6SM BKN035
      TEMPO 2508/2512 5SM BR BKN018
     FM251300 22011KT P6SM SCT018 BKN080
     FM251600 23012G18KT P6SM BKN020 OVC040
     FM252100 26014G20KT P6SM SCT025=

USA.gov is the U.S. government's official web portal to all federal, state and local government web resources and services.